Havasupai Indian Reservation, Arizona
Current Conditions -  °F | °C
As of 1:54 PM on Friday 31 Oct 2014 (Local Time) from KGCN Reporting Station
Clear Clear  
Wind Chill: 72°   Ceiling: Unl
Heat Index: 72°   Visibility: 10mi
Dew Point: 31°   Wind: 21mph
Humidity: 22%   Direction: 210°SSW
Pressure: 30.11"   Gusts: 29mph
Location:  36.16°N, 112.613°W
Report Text: KGCN 312054Z 21018G25KT 10SM CLR 22/M01 A3011 RMK AO2 PK WND 21028/2016 SLP138 T02221006 56023
Loading
Personal Weather Stations






























Interactive Weather Map
Tropical Storm Tracking
New forecast layout! Learn more

10-Day Weather Forecast

Advertisements
Track Severe Weather on mobile